createdAt,value
2022-12-17T00:02:07.501Z,25.03
2022-12-17T00:04:52.643Z,30.80
2022-12-17T00:07:39.537Z,24.17
2022-12-17T00:10:26.205Z,26.30
2022-12-17T00:13:11.974Z,25.10
2022-12-17T00:15:57.362Z,23.83
2022-12-17T00:18:42.481Z,24.03
2022-12-17T00:21:43.653Z,24.12
2022-12-17T00:24:29.043Z,24.07
2022-12-17T00:27:14.523Z,23.37
2022-12-17T00:29:59.717Z,22.87
2022-12-17T00:32:45.200Z,22.00
2022-12-17T00:35:30.229Z,23.90
2022-12-17T00:38:15.692Z,32.40
2022-12-17T00:41:00.969Z,24.27
2022-12-17T00:43:46.144Z,23.80
2022-12-17T00:46:31.483Z,23.40
2022-12-17T00:49:16.581Z,21.77
2022-12-17T00:52:01.681Z,21.33
2022-12-17T00:54:48.745Z,20.90
2022-12-17T00:57:33.935Z,21.97
2022-12-17T01:00:19.298Z,21.07
2022-12-17T01:03:04.424Z,21.13
2022-12-17T01:05:50.072Z,19.60
2022-12-17T01:08:35.240Z,20.13
2022-12-17T01:11:27.017Z,22.10
2022-12-17T01:14:12.807Z,20.23
2022-12-17T01:16:58.015Z,19.47
2022-12-17T01:19:43.242Z,21.97
2022-12-17T01:22:28.952Z,19.83
2022-12-17T01:25:14.198Z,19.67
2022-12-17T01:27:59.293Z,19.70
2022-12-17T01:30:44.640Z,20.10
2022-12-17T01:33:29.870Z,21.53
2022-12-17T01:36:16.767Z,19.87
2022-12-17T01:39:03.280Z,18.53
2022-12-17T01:41:49.339Z,19.83
2022-12-17T01:45:02.402Z,19.63
2022-12-17T01:48:25.502Z,19.00
2022-12-17T01:51:15.044Z,18.87
2022-12-17T01:54:11.370Z,18.00
2022-12-17T01:57:02.176Z,18.30
2022-12-17T02:00:22.155Z,19.80
2022-12-17T02:03:07.410Z,17.63
2022-12-17T02:06:13.533Z,16.10
2022-12-17T02:09:48.282Z,15.90
2022-12-17T02:12:58.903Z,14.77
2022-12-17T02:16:01.897Z,14.97
2022-12-17T02:18:58.516Z,13.63
2022-12-17T02:21:46.633Z,15.03
2022-12-17T02:25:06.196Z,13.97
2022-12-17T02:27:53.118Z,14.07
2022-12-17T02:30:38.631Z,13.00
2022-12-17T02:33:24.111Z,12.00
2022-12-17T02:36:18.135Z,11.93
2022-12-17T02:39:03.612Z,12.00
2022-12-17T02:41:58.912Z,12.13
2022-12-17T02:44:46.777Z,12.70
2022-12-17T02:47:34.142Z,11.70
2022-12-17T02:50:19.429Z,12.57
2022-12-17T02:53:07.654Z,12.07
2022-12-17T02:55:55.622Z,12.03
2022-12-17T02:58:40.768Z,11.27
2022-12-17T03:01:27.059Z,12.60
2022-12-17T03:04:12.742Z,13.40
2022-12-17T03:06:57.879Z,11.50
2022-12-17T03:09:42.985Z,11.93
2022-12-17T03:12:28.367Z,12.23
2022-12-17T03:15:13.505Z,11.60
2022-12-17T03:17:58.917Z,11.70
2022-12-17T03:20:43.982Z,11.57
2022-12-17T03:23:30.995Z,12.60
2022-12-17T03:26:22.526Z,11.43
2022-12-17T03:29:08.015Z,12.23
2022-12-17T03:31:53.928Z,11.87
2022-12-17T03:34:39.036Z,11.00
2022-12-17T03:37:24.287Z,11.23
2022-12-17T03:40:09.673Z,11.83
2022-12-17T03:42:55.236Z,11.53
2022-12-17T03:45:40.454Z,12.27
2022-12-17T03:48:29.147Z,12.40
2022-12-17T03:51:15.376Z,11.97
2022-12-17T03:54:00.725Z,9.97
2022-12-17T03:56:46.798Z,11.33
2022-12-17T03:59:32.286Z,12.13
2022-12-17T04:02:18.818Z,11.83
2022-12-17T04:05:04.374Z,12.27
2022-12-17T04:07:50.026Z,10.43
2022-12-17T04:10:35.719Z,11.90
2022-12-17T04:13:20.814Z,10.77
2022-12-17T04:16:26.005Z,9.90
2022-12-17T04:19:11.277Z,10.27
2022-12-17T04:21:56.461Z,10.50
2022-12-17T04:24:41.969Z,10.37
2022-12-17T04:27:27.154Z,9.93
2022-12-17T04:30:12.535Z,10.40
2022-12-17T04:32:57.957Z,9.77
2022-12-17T04:35:43.148Z,9.50
2022-12-17T04:38:28.513Z,10.07
2022-12-17T04:41:13.703Z,9.23
2022-12-17T04:44:02.960Z,9.87
2022-12-17T04:46:49.159Z,9.40
2022-12-17T04:49:34.523Z,10.43
2022-12-17T04:52:20.347Z,10.40
2022-12-17T04:55:05.742Z,8.47
2022-12-17T04:57:51.605Z,9.20
2022-12-17T05:00:37.514Z,9.07
2022-12-17T05:03:25.392Z,8.33
2022-12-17T05:06:12.459Z,8.03
2022-12-17T05:08:58.000Z,10.43
2022-12-17T05:11:43.658Z,10.23
2022-12-17T05:14:29.094Z,8.87
2022-12-17T05:17:14.290Z,9.03
2022-12-17T05:19:59.916Z,9.17
2022-12-17T05:22:45.244Z,9.10
2022-12-17T05:25:32.455Z,9.37
2022-12-17T05:28:18.009Z,9.80
2022-12-17T05:31:13.955Z,8.50
2022-12-17T05:34:00.481Z,7.70
2022-12-17T05:36:45.524Z,8.70
2022-12-17T05:39:30.982Z,8.73
2022-12-17T05:42:16.144Z,9.03
2022-12-17T05:45:01.673Z,10.33
2022-12-17T05:47:47.486Z,11.77
2022-12-17T05:50:32.761Z,13.20
2022-12-17T05:53:23.601Z,12.67
2022-12-17T05:56:11.331Z,13.40
2022-12-17T05:58:58.188Z,15.60
2022-12-17T06:01:43.645Z,13.70
2022-12-17T06:04:29.925Z,13.67
2022-12-17T06:07:15.202Z,13.40
2022-12-17T06:10:00.532Z,14.90
2022-12-17T06:13:05.563Z,14.30
2022-12-17T06:15:50.870Z,14.03
2022-12-17T06:18:35.996Z,16.03
2022-12-17T06:21:21.283Z,14.23
2022-12-17T06:24:17.012Z,19.67
2022-12-17T06:27:02.387Z,16.13
2022-12-17T06:29:47.565Z,17.17
2022-12-17T06:32:32.997Z,16.47
2022-12-17T06:35:17.983Z,14.83
2022-12-17T06:38:03.422Z,16.00
2022-12-17T06:40:48.519Z,16.33
2022-12-17T06:43:34.189Z,15.53
2022-12-17T06:46:19.636Z,15.17
2022-12-17T06:49:04.931Z,14.00
2022-12-17T06:51:50.284Z,13.10
2022-12-17T06:54:35.365Z,14.13
2022-12-17T06:57:20.506Z,13.67
2022-12-17T07:00:05.732Z,14.10
2022-12-17T07:02:51.059Z,13.90
2022-12-17T07:05:36.743Z,13.53
2022-12-17T07:08:22.380Z,14.33
2022-12-17T07:11:07.559Z,15.00
2022-12-17T07:13:52.675Z,14.43
2022-12-17T07:16:37.951Z,14.43
2022-12-17T07:19:27.217Z,14.53
2022-12-17T07:22:12.794Z,14.47
2022-12-17T07:24:57.984Z,13.93
2022-12-17T07:27:43.846Z,13.70
2022-12-17T07:30:30.029Z,14.80
2022-12-17T07:33:25.881Z,15.43
2022-12-17T07:36:12.126Z,15.40
2022-12-17T07:38:57.825Z,14.43
2022-12-17T07:41:43.572Z,16.60
2022-12-17T07:44:28.804Z,17.40
2022-12-17T07:47:13.896Z,14.47
2022-12-17T07:49:59.034Z,13.00
2022-12-17T07:52:44.275Z,13.17
2022-12-17T07:55:29.272Z,13.33
2022-12-17T07:58:20.582Z,13.27
2022-12-17T08:01:05.860Z,13.70
2022-12-17T08:03:51.060Z,13.50
2022-12-17T08:06:36.591Z,13.83
2022-12-17T08:09:22.195Z,13.57
2022-12-17T08:12:07.655Z,15.00
2022-12-17T08:14:52.988Z,15.73
2022-12-17T08:17:38.082Z,15.10
2022-12-17T08:20:24.916Z,13.70
2022-12-17T08:23:10.001Z,11.87
2022-12-17T08:25:55.302Z,10.93
2022-12-17T08:28:50.627Z,10.17
2022-12-17T08:31:36.839Z,10.87
2022-12-17T08:34:22.507Z,10.60
2022-12-17T08:37:07.845Z,9.87
2022-12-17T08:39:52.989Z,9.83
2022-12-17T08:42:38.457Z,10.00
2022-12-17T08:45:24.668Z,10.43
2022-12-17T08:48:09.755Z,10.90
2022-12-17T08:50:55.421Z,10.20
2022-12-17T08:53:41.272Z,10.47
2022-12-17T08:56:26.662Z,9.87
2022-12-17T08:59:11.865Z,10.60
2022-12-17T09:01:57.000Z,10.20
2022-12-17T09:04:42.447Z,10.93
2022-12-17T09:07:27.696Z,11.90
2022-12-17T09:10:12.884Z,10.83
2022-12-17T09:13:04.143Z,11.00
2022-12-17T09:15:52.264Z,11.50
2022-12-17T09:18:39.744Z,10.80
2022-12-17T09:21:26.155Z,12.27
2022-12-17T09:24:11.444Z,10.70
2022-12-17T09:26:56.711Z,12.03
2022-12-17T09:29:41.972Z,12.23
2022-12-17T09:32:27.033Z,11.43
2022-12-17T09:35:12.211Z,11.77
2022-12-17T09:37:57.353Z,12.53
2022-12-17T09:40:43.591Z,12.60
2022-12-17T09:44:19.849Z,12.27
2022-12-17T09:47:46.532Z,12.10
2022-12-17T09:50:34.829Z,12.77
2022-12-17T09:53:49.355Z,12.03
2022-12-17T09:56:35.852Z,12.03
2022-12-17T09:59:22.148Z,12.97
2022-12-17T10:02:07.465Z,12.83
2022-12-17T10:05:01.330Z,13.90
2022-12-17T10:07:57.456Z,13.40
2022-12-17T10:10:48.814Z,12.53
2022-12-17T10:13:38.391Z,13.10
2022-12-17T10:16:46.836Z,13.43
2022-12-17T10:19:57.979Z,15.50
2022-12-17T10:22:43.269Z,14.67
2022-12-17T10:25:41.655Z,12.57
2022-12-17T10:28:33.789Z,15.27
2022-12-17T10:31:21.189Z,14.67
2022-12-17T10:34:06.919Z,14.13
2022-12-17T10:36:52.922Z,13.90
2022-12-17T10:39:44.829Z,14.40
2022-12-17T10:42:44.672Z,18.70
2022-12-17T10:45:47.726Z,19.00
2022-12-17T10:48:44.598Z,18.37
2022-12-17T10:51:51.137Z,19.00
2022-12-17T10:54:49.317Z,18.47
2022-12-17T10:57:55.414Z,18.53
2022-12-17T11:00:45.819Z,17.80
2022-12-17T11:03:50.777Z,17.70
2022-12-17T11:06:52.681Z,17.70
2022-12-17T11:10:09.009Z,17.40
2022-12-17T11:13:17.380Z,17.43
2022-12-17T11:16:11.511Z,17.63
2022-12-17T11:19:09.903Z,17.30
2022-12-17T11:22:02.364Z,18.30
2022-12-17T11:25:41.785Z,17.47
2022-12-17T11:28:42.466Z,16.90
2022-12-17T11:31:37.081Z,17.30
2022-12-17T11:35:07.556Z,16.63
2022-12-17T11:38:21.697Z,15.83
2022-12-17T11:41:14.276Z,17.37
2022-12-17T11:45:13.588Z,15.40
2022-12-17T11:48:44.456Z,14.03
2022-12-17T11:51:46.648Z,13.47
2022-12-17T11:54:45.282Z,12.73
2022-12-17T11:57:52.338Z,13.70
2022-12-17T12:00:41.919Z,13.53
2022-12-17T12:04:02.405Z,14.43
2022-12-17T12:07:21.993Z,13.27
2022-12-17T12:10:21.695Z,13.07
2022-12-17T12:13:39.881Z,12.37
2022-12-17T12:16:53.997Z,16.00
2022-12-17T12:20:13.603Z,23.97
2022-12-17T12:23:22.435Z,14.17
2022-12-17T12:26:42.930Z,13.67
2022-12-17T12:30:12.534Z,13.20
2022-12-17T12:34:01.136Z,12.87
2022-12-17T12:36:47.183Z,13.00
2022-12-17T12:39:43.181Z,12.00
2022-12-17T12:42:43.209Z,15.73
2022-12-17T12:46:26.016Z,12.60
2022-12-17T12:49:26.693Z,11.47
2022-12-17T12:52:17.125Z,12.13
2022-12-17T12:55:05.375Z,11.23
2022-12-17T12:58:23.064Z,11.57
2022-12-17T13:01:08.556Z,11.30
2022-12-17T13:04:08.178Z,10.30
2022-12-17T13:06:42.376Z,11.90
2022-12-17T13:09:15.226Z,12.23
2022-12-17T13:11:54.992Z,11.07
2022-12-17T13:14:29.137Z,11.70
2022-12-17T13:17:07.174Z,10.83
2022-12-17T13:19:40.681Z,11.77
2022-12-17T13:22:23.344Z,11.80
2022-12-17T13:25:11.577Z,11.17
2022-12-17T13:27:41.753Z,12.57
2022-12-17T13:30:36.026Z,11.83
2022-12-17T13:33:21.187Z,11.77
2022-12-17T13:36:11.333Z,10.63
2022-12-17T13:39:20.470Z,10.10
2022-12-17T13:41:47.217Z,12.10
2022-12-17T13:44:38.261Z,10.73
2022-12-17T13:47:05.033Z,10.80
2022-12-17T13:49:32.347Z,11.20
2022-12-17T13:52:15.056Z,11.00
2022-12-17T13:54:41.962Z,12.50
2022-12-17T13:57:14.509Z,11.67
2022-12-17T13:59:48.479Z,11.30
2022-12-17T14:02:36.212Z,11.03
2022-12-17T14:05:08.342Z,10.57
2022-12-17T14:07:39.155Z,10.70
2022-12-17T14:10:15.892Z,10.73
2022-12-17T14:12:43.289Z,10.67
2022-12-17T14:15:25.724Z,10.60
2022-12-17T14:17:54.900Z,11.10
2022-12-17T14:20:29.261Z,10.67
2022-12-17T14:23:23.027Z,10.97
2022-12-17T14:25:50.043Z,11.50
2022-12-17T14:28:52.226Z,10.90
2022-12-17T14:31:30.821Z,10.20
2022-12-17T14:34:15.835Z,10.17
2022-12-17T14:36:43.923Z,11.10
2022-12-17T14:39:26.183Z,10.03
2022-12-17T14:42:15.014Z,10.30
2022-12-17T14:45:02.050Z,9.53
2022-12-17T14:47:31.570Z,9.57
2022-12-17T14:50:04.438Z,11.00
2022-12-17T14:52:47.687Z,9.90
2022-12-17T14:55:39.600Z,10.70
2022-12-17T14:58:13.831Z,9.97
2022-12-17T15:00:48.013Z,9.67
2022-12-17T15:03:22.964Z,10.10
2022-12-17T15:05:58.939Z,8.50
2022-12-17T15:08:29.265Z,10.80
2022-12-17T15:10:55.963Z,10.20
2022-12-17T15:13:22.672Z,9.10
2022-12-17T15:15:49.389Z,9.67
2022-12-17T15:18:16.168Z,9.47
2022-12-17T15:20:43.316Z,9.47
2022-12-17T15:23:19.543Z,9.67
2022-12-17T15:25:49.597Z,9.83
2022-12-17T15:28:19.570Z,9.17
2022-12-17T15:30:47.569Z,9.27
2022-12-17T15:33:15.131Z,9.20
2022-12-17T15:35:43.158Z,8.87
2022-12-17T15:38:12.128Z,9.10
2022-12-17T15:40:39.910Z,9.17
2022-12-17T15:43:12.486Z,9.63
2022-12-17T15:45:46.671Z,10.20
2022-12-17T15:48:19.851Z,10.30
2022-12-17T15:50:47.994Z,9.27
2022-12-17T15:53:15.228Z,9.13
2022-12-17T15:55:42.218Z,10.73
2022-12-17T15:58:11.363Z,9.40
2022-12-17T16:00:38.767Z,9.90
2022-12-17T16:03:05.830Z,10.37
2022-12-17T16:05:32.645Z,9.63
2022-12-17T16:08:02.158Z,10.20
2022-12-17T16:10:29.697Z,10.87
2022-12-17T16:12:56.428Z,10.13
2022-12-17T16:15:23.161Z,12.27
2022-12-17T16:17:49.892Z,11.10
2022-12-17T16:20:16.926Z,11.63
2022-12-17T16:22:44.296Z,10.83
2022-12-17T16:25:11.144Z,12.00
2022-12-17T16:27:38.348Z,11.23
2022-12-17T16:30:06.013Z,10.80
2022-12-17T16:32:36.546Z,9.60
2022-12-17T16:35:04.893Z,9.73
2022-12-17T16:37:31.722Z,10.27
2022-12-17T16:40:00.327Z,10.13
2022-12-17T16:42:27.873Z,10.60
2022-12-17T16:44:54.608Z,10.90
2022-12-17T16:47:21.343Z,10.50
2022-12-17T16:49:50.683Z,10.40
2022-12-17T16:52:17.465Z,9.60
2022-12-17T16:54:44.222Z,10.37
2022-12-17T16:57:11.041Z,10.03
2022-12-17T16:59:37.750Z,9.53
2022-12-17T17:02:04.668Z,11.03
2022-12-17T17:04:31.522Z,10.80
2022-12-17T17:06:58.300Z,9.97
2022-12-17T17:09:25.772Z,10.13
2022-12-17T17:11:56.953Z,9.97
2022-12-17T17:14:24.016Z,9.87
2022-12-17T17:16:51.724Z,11.57
2022-12-17T17:19:19.680Z,10.70
2022-12-17T17:21:53.945Z,10.53
2022-12-17T17:24:24.085Z,10.73
2022-12-17T17:26:52.753Z,10.57
2022-12-17T17:29:19.995Z,10.93
2022-12-17T17:34:33.758Z,11.17
2022-12-17T17:37:00.550Z,10.60
2022-12-17T17:39:27.358Z,10.20
2022-12-17T17:41:54.162Z,10.43
2022-12-17T17:44:20.851Z,11.17
2022-12-17T17:46:47.636Z,10.20
2022-12-17T17:49:14.392Z,10.10
2022-12-17T17:54:30.803Z,11.57
2022-12-17T17:56:57.712Z,11.17
2022-12-17T17:59:31.203Z,13.73
2022-12-17T18:02:01.560Z,11.80
2022-12-17T18:04:28.712Z,12.30
2022-12-17T18:07:24.115Z,12.97
2022-12-17T18:09:42.247Z,13.23
2022-12-17T18:12:27.721Z,13.37
2022-12-17T18:17:44.112Z,12.97
2022-12-17T18:20:12.084Z,14.13
2022-12-17T18:22:38.786Z,12.07
2022-12-17T18:25:05.872Z,12.97
2022-12-17T18:27:32.913Z,13.40
2022-12-17T18:29:59.713Z,13.63
2022-12-17T18:32:26.537Z,13.17
2022-12-17T18:34:53.336Z,13.33
2022-12-17T18:37:20.173Z,12.20
2022-12-17T18:39:49.867Z,12.40
2022-12-17T18:42:35.012Z,13.87
2022-12-17T18:45:02.139Z,13.97
2022-12-17T18:47:28.909Z,14.27
2022-12-17T18:49:55.583Z,16.50
2022-12-17T18:52:24.322Z,15.27
2022-12-17T18:54:51.245Z,18.50
2022-12-17T18:57:18.005Z,13.90
2022-12-17T18:59:44.888Z,12.10
2022-12-17T19:02:13.280Z,12.13
2022-12-17T19:04:41.205Z,12.57
2022-12-17T19:07:08.006Z,12.20
2022-12-17T19:09:35.985Z,13.73
2022-12-17T19:12:06.195Z,11.93
2022-12-17T19:14:34.068Z,12.67
2022-12-17T19:17:01.062Z,12.53
2022-12-17T19:19:28.138Z,11.90
2022-12-17T19:21:55.773Z,12.50
2022-12-17T19:24:23.293Z,12.13
2022-12-17T19:26:51.786Z,13.30
2022-12-17T19:29:20.389Z,13.27
2022-12-17T19:31:47.604Z,12.97
2022-12-17T19:34:17.227Z,12.07
2022-12-17T19:36:45.538Z,13.00
2022-12-17T19:39:16.830Z,12.53
2022-12-17T19:41:43.855Z,15.70
2022-12-17T19:44:16.494Z,19.67
2022-12-17T19:46:44.172Z,14.77
2022-12-17T19:49:17.880Z,14.87
2022-12-17T19:51:45.316Z,13.10
2022-12-17T19:54:14.837Z,12.17
2022-12-17T19:56:44.532Z,14.53
2022-12-17T19:59:12.971Z,16.63
2022-12-17T20:01:47.991Z,14.77
2022-12-17T20:04:16.323Z,13.77
2022-12-17T20:06:44.611Z,13.73
2022-12-17T20:09:17.396Z,16.83
2022-12-17T20:11:49.275Z,22.87
2022-12-17T20:14:23.549Z,14.27
2022-12-17T20:16:56.420Z,14.20
2022-12-17T20:19:32.513Z,14.37
2022-12-17T20:22:04.337Z,16.27
2022-12-17T20:24:32.211Z,12.50
2022-12-17T20:27:00.662Z,11.87
2022-12-17T20:29:28.078Z,11.20
2022-12-17T20:32:02.503Z,11.93
2022-12-17T20:34:29.516Z,11.00
2022-12-17T20:36:56.295Z,12.07
2022-12-17T20:39:45.178Z,11.50
2022-12-17T20:43:39.707Z,12.97
2022-12-17T20:50:17.687Z,10.67
2022-12-17T20:56:09.674Z,16.83
2022-12-17T20:58:50.127Z,16.70
2022-12-17T21:01:22.665Z,16.23
2022-12-17T21:04:09.856Z,17.07
2022-12-17T21:11:30.756Z,20.03
2022-12-17T21:17:04.903Z,19.13
2022-12-17T21:19:41.432Z,17.83
2022-12-17T21:22:58.586Z,18.20
2022-12-17T21:25:34.604Z,17.97
2022-12-17T21:28:02.540Z,19.23
2022-12-17T21:30:34.822Z,19.63
2022-12-17T21:33:26.090Z,18.23
2022-12-17T21:36:24.338Z,17.87
2022-12-17T21:38:57.636Z,18.80
2022-12-17T21:41:36.171Z,18.13
2022-12-17T21:44:07.005Z,18.43
2022-12-17T21:46:50.305Z,18.47
2022-12-17T21:49:20.223Z,18.10
2022-12-17T21:54:37.396Z,17.83
2022-12-17T21:57:09.775Z,17.37
2022-12-17T22:01:09.883Z,18.50
2022-12-17T22:03:53.692Z,17.87
2022-12-17T22:06:55.145Z,16.90
2022-12-17T22:09:43.702Z,18.97
2022-12-17T22:12:40.518Z,17.83
2022-12-17T22:15:19.746Z,18.47
2022-12-17T22:18:13.986Z,17.47
2022-12-17T22:20:44.115Z,17.60
2022-12-17T22:23:17.113Z,18.40
2022-12-17T22:25:49.745Z,18.20
2022-12-17T22:28:22.719Z,19.73
2022-12-17T22:35:06.906Z,19.53
2022-12-17T22:40:07.618Z,17.67
2022-12-17T22:41:02.683Z,17.40
2022-12-17T22:44:38.906Z,18.40
2022-12-17T22:45:46.172Z,19.13
2022-12-17T22:48:17.341Z,18.53
2022-12-17T22:51:10.262Z,17.03
2022-12-17T22:53:43.492Z,18.00
2022-12-17T22:56:20.824Z,19.30
2022-12-17T22:58:58.103Z,17.77
2022-12-17T23:01:25.057Z,18.57
2022-12-17T23:04:01.050Z,18.17
2022-12-17T23:06:28.732Z,18.63
2022-12-17T23:08:57.634Z,17.40
2022-12-17T23:11:26.616Z,17.77
2022-12-17T23:13:55.206Z,17.70
2022-12-17T23:16:22.543Z,17.57
2022-12-17T23:18:52.385Z,17.13
2022-12-17T23:21:25.786Z,17.67
2022-12-17T23:23:54.672Z,18.10
2022-12-17T23:26:28.751Z,18.03
2022-12-17T23:28:58.499Z,19.93
2022-12-17T23:31:38.271Z,21.80
2022-12-17T23:34:05.729Z,21.80
2022-12-17T23:36:32.766Z,19.17
2022-12-17T23:39:00.141Z,17.67
2022-12-17T23:41:30.145Z,19.90
2022-12-17T23:43:58.218Z,17.63
2022-12-17T23:46:27.893Z,17.10
2022-12-17T23:48:55.283Z,16.73
2022-12-17T23:51:24.171Z,17.17
2022-12-17T23:53:50.919Z,17.00
2022-12-17T23:56:24.102Z,18.27
2022-12-17T23:58:58.316Z,17.23
